sensor_id;sensor_type;location;lat;lon;timestamp;P1;durP1;ratioP1;P2;durP2;ratioP2
45065;SDS011;30830;53.704;10.004;2023-05-06T00:02:10;6.57;;;3.40;;
45065;SDS011;30830;53.704;10.004;2023-05-06T00:04:36;6.38;;;3.78;;
45065;SDS011;30830;53.704;10.004;2023-05-06T00:07:02;5.60;;;3.60;;
45065;SDS011;30830;53.704;10.004;2023-05-06T00:09:28;7.18;;;3.33;;
45065;SDS011;30830;53.704;10.004;2023-05-06T00:11:53;6.68;;;3.20;;
45065;SDS011;30830;53.704;10.004;2023-05-06T00:14:19;5.63;;;3.53;;
45065;SDS011;30830;53.704;10.004;2023-05-06T00:16:44;6.53;;;3.33;;
45065;SDS011;30830;53.704;10.004;2023-05-06T00:19:10;4.50;;;2.90;;
45065;SDS011;30830;53.704;10.004;2023-05-06T00:21:36;6.57;;;3.70;;
45065;SDS011;30830;53.704;10.004;2023-05-06T00:24:02;7.28;;;3.70;;
45065;SDS011;30830;53.704;10.004;2023-05-06T00:26:27;5.10;;;3.28;;
45065;SDS011;30830;53.704;10.004;2023-05-06T00:28:53;6.22;;;3.35;;
45065;SDS011;30830;53.704;10.004;2023-05-06T00:31:18;5.38;;;3.28;;
45065;SDS011;30830;53.704;10.004;2023-05-06T00:33:44;6.85;;;3.60;;
45065;SDS011;30830;53.704;10.004;2023-05-06T00:36:09;7.22;;;3.50;;
45065;SDS011;30830;53.704;10.004;2023-05-06T00:38:35;5.25;;;3.60;;
45065;SDS011;30830;53.704;10.004;2023-05-06T00:41:01;5.38;;;3.97;;
45065;SDS011;30830;53.704;10.004;2023-05-06T00:43:27;5.95;;;3.70;;
45065;SDS011;30830;53.704;10.004;2023-05-06T00:45:53;5.47;;;3.50;;
45065;SDS011;30830;53.704;10.004;2023-05-06T00:48:18;8.00;;;3.70;;
45065;SDS011;30830;53.704;10.004;2023-05-06T00:50:44;5.78;;;3.55;;
45065;SDS011;30830;53.704;10.004;2023-05-06T00:53:09;4.93;;;2.63;;
45065;SDS011;30830;53.704;10.004;2023-05-06T00:55:37;9.07;;;3.55;;
45065;SDS011;30830;53.704;10.004;2023-05-06T00:58:03;9.05;;;3.63;;
45065;SDS011;30830;53.704;10.004;2023-05-06T01:00:29;5.25;;;3.55;;
45065;SDS011;30830;53.704;10.004;2023-05-06T01:02:55;5.15;;;3.15;;
45065;SDS011;30830;53.704;10.004;2023-05-06T01:05:21;6.05;;;3.42;;
45065;SDS011;30830;53.704;10.004;2023-05-06T01:07:59;7.82;;;3.45;;
45065;SDS011;30830;53.704;10.004;2023-05-06T01:13:06;9.80;;;3.60;;
45065;SDS011;30830;53.704;10.004;2023-05-06T01:18:09;8.32;;;4.95;;
45065;SDS011;30830;53.704;10.004;2023-05-06T01:20:37;6.50;;;3.70;;
45065;SDS011;30830;53.704;10.004;2023-05-06T01:23:07;6.00;;;3.92;;
45065;SDS011;30830;53.704;10.004;2023-05-06T01:25:35;5.57;;;3.88;;
45065;SDS011;30830;53.704;10.004;2023-05-06T01:28:01;6.88;;;5.15;;
45065;SDS011;30830;53.704;10.004;2023-05-06T01:30:27;5.22;;;3.78;;
45065;SDS011;30830;53.704;10.004;2023-05-06T01:33:03;6.05;;;3.35;;
45065;SDS011;30830;53.704;10.004;2023-05-06T01:38:36;10.07;;;4.13;;
45065;SDS011;30830;53.704;10.004;2023-05-06T01:41:16;4.63;;;3.58;;
45065;SDS011;30830;53.704;10.004;2023-05-06T01:43:44;7.25;;;4.10;;
45065;SDS011;30830;53.704;10.004;2023-05-06T01:46:14;9.85;;;3.83;;
45065;SDS011;30830;53.704;10.004;2023-05-06T01:48:43;4.75;;;4.05;;
45065;SDS011;30830;53.704;10.004;2023-05-06T01:51:10;7.10;;;3.90;;
45065;SDS011;30830;53.704;10.004;2023-05-06T01:53:36;11.15;;;4.40;;
45065;SDS011;30830;53.704;10.004;2023-05-06T01:56:02;4.75;;;4.00;;
45065;SDS011;30830;53.704;10.004;2023-05-06T01:58:28;4.13;;;3.72;;
45065;SDS011;30830;53.704;10.004;2023-05-06T02:00:54;6.07;;;3.88;;
45065;SDS011;30830;53.704;10.004;2023-05-06T02:03:19;5.68;;;3.67;;
45065;SDS011;30830;53.704;10.004;2023-05-06T02:05:45;4.90;;;3.72;;
45065;SDS011;30830;53.704;10.004;2023-05-06T02:08:10;8.40;;;3.65;;
45065;SDS011;30830;53.704;10.004;2023-05-06T02:10:37;6.47;;;3.90;;
45065;SDS011;30830;53.704;10.004;2023-05-06T02:13:02;7.43;;;4.40;;
45065;SDS011;30830;53.704;10.004;2023-05-06T02:15:28;9.52;;;3.85;;
45065;SDS011;30830;53.704;10.004;2023-05-06T02:17:54;5.93;;;3.80;;
45065;SDS011;30830;53.704;10.004;2023-05-06T02:20:21;4.75;;;3.83;;
45065;SDS011;30830;53.704;10.004;2023-05-06T02:22:46;7.75;;;4.15;;
45065;SDS011;30830;53.704;10.004;2023-05-06T02:25:12;8.88;;;4.72;;
45065;SDS011;30830;53.704;10.004;2023-05-06T02:27:38;7.45;;;4.07;;
45065;SDS011;30830;53.704;10.004;2023-05-06T02:30:03;5.20;;;4.03;;
45065;SDS011;30830;53.704;10.004;2023-05-06T02:32:30;8.05;;;4.72;;
45065;SDS011;30830;53.704;10.004;2023-05-06T02:34:55;8.73;;;4.60;;
45065;SDS011;30830;53.704;10.004;2023-05-06T02:37:21;5.78;;;3.88;;
45065;SDS011;30830;53.704;10.004;2023-05-06T02:39:47;5.03;;;3.72;;
45065;SDS011;30830;53.704;10.004;2023-05-06T02:42:12;4.40;;;3.90;;
45065;SDS011;30830;53.704;10.004;2023-05-06T02:44:39;5.57;;;4.55;;
45065;SDS011;30830;53.704;10.004;2023-05-06T02:47:05;5.05;;;4.50;;
45065;SDS011;30830;53.704;10.004;2023-05-06T02:49:31;4.95;;;4.05;;
45065;SDS011;30830;53.704;10.004;2023-05-06T02:51:56;5.80;;;4.03;;
45065;SDS011;30830;53.704;10.004;2023-05-06T02:54:22;7.25;;;4.47;;
45065;SDS011;30830;53.704;10.004;2023-05-06T02:56:47;5.65;;;3.92;;
45065;SDS011;30830;53.704;10.004;2023-05-06T02:59:13;7.32;;;4.20;;
45065;SDS011;30830;53.704;10.004;2023-05-06T03:01:39;8.45;;;4.72;;
45065;SDS011;30830;53.704;10.004;2023-05-06T03:04:04;6.80;;;4.32;;
45065;SDS011;30830;53.704;10.004;2023-05-06T03:06:31;5.93;;;4.40;;
45065;SDS011;30830;53.704;10.004;2023-05-06T03:08:56;4.28;;;3.70;;
45065;SDS011;30830;53.704;10.004;2023-05-06T03:11:22;7.03;;;4.32;;
45065;SDS011;30830;53.704;10.004;2023-05-06T03:13:47;7.93;;;4.65;;
45065;SDS011;30830;53.704;10.004;2023-05-06T03:16:13;7.40;;;3.92;;
45065;SDS011;30830;53.704;10.004;2023-05-06T03:18:39;8.23;;;4.47;;
45065;SDS011;30830;53.704;10.004;2023-05-06T03:21:04;6.72;;;4.28;;
45065;SDS011;30830;53.704;10.004;2023-05-06T03:23:30;7.00;;;3.80;;
45065;SDS011;30830;53.704;10.004;2023-05-06T03:25:56;6.68;;;4.85;;
45065;SDS011;30830;53.704;10.004;2023-05-06T03:28:21;4.72;;;3.88;;
45065;SDS011;30830;53.704;10.004;2023-05-06T03:30:47;5.65;;;3.90;;
45065;SDS011;30830;53.704;10.004;2023-05-06T03:33:13;5.25;;;4.10;;
45065;SDS011;30830;53.704;10.004;2023-05-06T03:35:38;7.57;;;4.72;;
45065;SDS011;30830;53.704;10.004;2023-05-06T03:38:05;4.68;;;3.92;;
45065;SDS011;30830;53.704;10.004;2023-05-06T03:40:30;4.57;;;3.85;;
45065;SDS011;30830;53.704;10.004;2023-05-06T03:42:57;6.63;;;4.28;;
45065;SDS011;30830;53.704;10.004;2023-05-06T03:45:22;8.00;;;4.30;;
45065;SDS011;30830;53.704;10.004;2023-05-06T03:47:48;9.85;;;5.35;;
45065;SDS011;30830;53.704;10.004;2023-05-06T03:50:13;8.18;;;5.05;;
45065;SDS011;30830;53.704;10.004;2023-05-06T03:52:39;5.82;;;4.18;;
45065;SDS011;30830;53.704;10.004;2023-05-06T03:55:05;6.57;;;4.75;;
45065;SDS011;30830;53.704;10.004;2023-05-06T03:57:30;4.78;;;4.30;;
45065;SDS011;30830;53.704;10.004;2023-05-06T03:59:56;5.43;;;4.20;;
45065;SDS011;30830;53.704;10.004;2023-05-06T04:02:22;6.97;;;4.47;;
45065;SDS011;30830;53.704;10.004;2023-05-06T04:04:47;8.25;;;4.88;;
45065;SDS011;30830;53.704;10.004;2023-05-06T04:07:13;8.50;;;5.13;;
45065;SDS011;30830;53.704;10.004;2023-05-06T04:09:39;5.95;;;4.35;;
45065;SDS011;30830;53.704;10.004;2023-05-06T04:12:04;4.43;;;3.90;;
45065;SDS011;30830;53.704;10.004;2023-05-06T04:14:30;6.95;;;5.00;;
45065;SDS011;30830;53.704;10.004;2023-05-06T04:16:56;5.00;;;4.03;;
45065;SDS011;30830;53.704;10.004;2023-05-06T04:19:22;4.90;;;4.07;;
45065;SDS011;30830;53.704;10.004;2023-05-06T04:21:47;7.90;;;5.20;;
45065;SDS011;30830;53.704;10.004;2023-05-06T04:24:13;7.47;;;5.25;;
45065;SDS011;30830;53.704;10.004;2023-05-06T04:26:41;5.78;;;4.40;;
45065;SDS011;30830;53.704;10.004;2023-05-06T04:29:07;6.63;;;4.78;;
45065;SDS011;30830;53.704;10.004;2023-05-06T04:31:33;5.97;;;5.32;;
45065;SDS011;30830;53.704;10.004;2023-05-06T04:33:59;7.40;;;4.35;;
45065;SDS011;30830;53.704;10.004;2023-05-06T04:36:25;7.38;;;5.22;;
45065;SDS011;30830;53.704;10.004;2023-05-06T04:38:50;8.13;;;4.50;;
45065;SDS011;30830;53.704;10.004;2023-05-06T04:41:17;4.90;;;4.32;;
45065;SDS011;30830;53.704;10.004;2023-05-06T04:43:43;7.95;;;5.18;;
45065;SDS011;30830;53.704;10.004;2023-05-06T04:46:08;8.38;;;5.28;;
45065;SDS011;30830;53.704;10.004;2023-05-06T04:48:35;6.38;;;4.50;;
45065;SDS011;30830;53.704;10.004;2023-05-06T04:51:01;5.53;;;4.68;;
45065;SDS011;30830;53.704;10.004;2023-05-06T04:53:30;9.45;;;4.55;;
45065;SDS011;30830;53.704;10.004;2023-05-06T04:55:55;7.10;;;5.50;;
45065;SDS011;30830;53.704;10.004;2023-05-06T04:58:21;7.55;;;4.60;;
45065;SDS011;30830;53.704;10.004;2023-05-06T05:00:47;5.93;;;4.53;;
45065;SDS011;30830;53.704;10.004;2023-05-06T05:03:12;6.15;;;4.80;;
45065;SDS011;30830;53.704;10.004;2023-05-06T05:05:38;6.43;;;5.32;;
45065;SDS011;30830;53.704;10.004;2023-05-06T05:08:03;5.47;;;4.95;;
45065;SDS011;30830;53.704;10.004;2023-05-06T05:10:29;8.68;;;5.20;;
45065;SDS011;30830;53.704;10.004;2023-05-06T05:12:55;9.73;;;4.82;;
45065;SDS011;30830;53.704;10.004;2023-05-06T05:15:22;7.53;;;5.38;;
45065;SDS011;30830;53.704;10.004;2023-05-06T05:17:48;11.40;;;5.35;;
45065;SDS011;30830;53.704;10.004;2023-05-06T05:20:14;6.10;;;5.40;;
45065;SDS011;30830;53.704;10.004;2023-05-06T05:22:40;7.68;;;5.38;;
45065;SDS011;30830;53.704;10.004;2023-05-06T05:25:05;8.13;;;5.28;;
45065;SDS011;30830;53.704;10.004;2023-05-06T05:27:31;5.85;;;4.47;;
45065;SDS011;30830;53.704;10.004;2023-05-06T05:29:57;8.90;;;4.60;;
45065;SDS011;30830;53.704;10.004;2023-05-06T05:32:22;8.25;;;5.57;;
45065;SDS011;30830;53.704;10.004;2023-05-06T05:34:48;6.85;;;4.88;;
45065;SDS011;30830;53.704;10.004;2023-05-06T05:37:14;6.10;;;4.65;;
45065;SDS011;30830;53.704;10.004;2023-05-06T05:39:39;8.20;;;5.00;;
45065;SDS011;30830;53.704;10.004;2023-05-06T05:42:05;5.97;;;5.15;;
45065;SDS011;30830;53.704;10.004;2023-05-06T05:44:31;8.48;;;5.45;;
45065;SDS011;30830;53.704;10.004;2023-05-06T05:46:57;8.68;;;5.60;;
45065;SDS011;30830;53.704;10.004;2023-05-06T05:49:22;6.32;;;4.55;;
45065;SDS011;30830;53.704;10.004;2023-05-06T05:51:48;6.53;;;5.35;;
45065;SDS011;30830;53.704;10.004;2023-05-06T05:54:14;11.05;;;6.07;;
45065;SDS011;30830;53.704;10.004;2023-05-06T05:56:40;5.93;;;5.05;;
45065;SDS011;30830;53.704;10.004;2023-05-06T05:59:06;8.48;;;5.32;;
45065;SDS011;30830;53.704;10.004;2023-05-06T06:01:32;7.28;;;5.47;;
45065;SDS011;30830;53.704;10.004;2023-05-06T06:03:57;5.95;;;5.25;;
45065;SDS011;30830;53.704;10.004;2023-05-06T06:06:23;7.30;;;5.38;;
45065;SDS011;30830;53.704;10.004;2023-05-06T06:08:50;9.38;;;6.07;;
45065;SDS011;30830;53.704;10.004;2023-05-06T06:11:16;8.18;;;5.80;;
45065;SDS011;30830;53.704;10.004;2023-05-06T06:13:41;6.80;;;5.70;;
45065;SDS011;30830;53.704;10.004;2023-05-06T06:16:07;7.90;;;5.70;;
45065;SDS011;30830;53.704;10.004;2023-05-06T06:18:33;8.75;;;5.65;;
45065;SDS011;30830;53.704;10.004;2023-05-06T06:20:58;7.03;;;5.25;;
45065;SDS011;30830;53.704;10.004;2023-05-06T06:23:24;5.90;;;5.35;;
45065;SDS011;30830;53.704;10.004;2023-05-06T06:25:50;7.53;;;5.82;;
45065;SDS011;30830;53.704;10.004;2023-05-06T06:28:15;7.40;;;4.95;;
45065;SDS011;30830;53.704;10.004;2023-05-06T06:30:41;7.40;;;5.45;;
45065;SDS011;30830;53.704;10.004;2023-05-06T06:33:06;8.57;;;5.20;;
45065;SDS011;30830;53.704;10.004;2023-05-06T06:35:32;7.25;;;5.32;;
45065;SDS011;30830;53.704;10.004;2023-05-06T06:37:58;7.78;;;5.20;;
45065;SDS011;30830;53.704;10.004;2023-05-06T06:40:24;7.57;;;5.55;;
45065;SDS011;30830;53.704;10.004;2023-05-06T06:42:50;7.70;;;6.05;;
45065;SDS011;30830;53.704;10.004;2023-05-06T06:45:15;6.75;;;5.45;;
45065;SDS011;30830;53.704;10.004;2023-05-06T06:47:41;6.30;;;5.05;;
45065;SDS011;30830;53.704;10.004;2023-05-06T06:50:07;8.73;;;5.63;;
45065;SDS011;30830;53.704;10.004;2023-05-06T06:52:33;8.32;;;5.20;;
45065;SDS011;30830;53.704;10.004;2023-05-06T06:55:00;8.60;;;5.95;;
45065;SDS011;30830;53.704;10.004;2023-05-06T06:57:26;9.77;;;5.72;;
45065;SDS011;30830;53.704;10.004;2023-05-06T06:59:51;10.23;;;6.22;;
45065;SDS011;30830;53.704;10.004;2023-05-06T07:02:18;9.38;;;6.28;;
45065;SDS011;30830;53.704;10.004;2023-05-06T07:04:44;8.48;;;5.95;;
45065;SDS011;30830;53.704;10.004;2023-05-06T07:07:10;7.50;;;5.05;;
45065;SDS011;30830;53.704;10.004;2023-05-06T07:09:35;6.25;;;5.38;;
45065;SDS011;30830;53.704;10.004;2023-05-06T07:12:01;7.22;;;5.05;;
45065;SDS011;30830;53.704;10.004;2023-05-06T07:14:27;9.55;;;5.40;;
45065;SDS011;30830;53.704;10.004;2023-05-06T07:16:52;5.57;;;4.70;;
45065;SDS011;30830;53.704;10.004;2023-05-06T07:19:18;7.50;;;5.72;;
45065;SDS011;30830;53.704;10.004;2023-05-06T07:21:43;6.75;;;5.72;;
45065;SDS011;30830;53.704;10.004;2023-05-06T07:24:09;6.70;;;5.35;;
45065;SDS011;30830;53.704;10.004;2023-05-06T07:26:35;8.43;;;5.80;;
45065;SDS011;30830;53.704;10.004;2023-05-06T07:29:01;6.43;;;5.45;;
45065;SDS011;30830;53.704;10.004;2023-05-06T07:31:26;9.07;;;5.63;;
45065;SDS011;30830;53.704;10.004;2023-05-06T07:33:52;8.00;;;5.35;;
45065;SDS011;30830;53.704;10.004;2023-05-06T07:36:17;6.15;;;5.50;;
45065;SDS011;30830;53.704;10.004;2023-05-06T07:38:43;6.95;;;5.43;;
45065;SDS011;30830;53.704;10.004;2023-05-06T07:41:09;5.25;;;4.75;;
45065;SDS011;30830;53.704;10.004;2023-05-06T07:43:34;7.20;;;5.18;;
45065;SDS011;30830;53.704;10.004;2023-05-06T07:46:00;8.15;;;5.85;;
45065;SDS011;30830;53.704;10.004;2023-05-06T07:48:29;7.22;;;5.30;;
45065;SDS011;30830;53.704;10.004;2023-05-06T07:50:54;6.20;;;4.93;;
45065;SDS011;30830;53.704;10.004;2023-05-06T07:53:20;7.55;;;5.00;;
45065;SDS011;30830;53.704;10.004;2023-05-06T07:55:46;7.75;;;5.10;;
45065;SDS011;30830;53.704;10.004;2023-05-06T07:58:11;9.63;;;5.95;;
45065;SDS011;30830;53.704;10.004;2023-05-06T08:00:37;6.80;;;5.28;;
45065;SDS011;30830;53.704;10.004;2023-05-06T08:03:02;7.30;;;5.18;;
45065;SDS011;30830;53.704;10.004;2023-05-06T08:05:28;6.15;;;5.22;;
45065;SDS011;30830;53.704;10.004;2023-05-06T08:07:54;7.18;;;5.15;;
45065;SDS011;30830;53.704;10.004;2023-05-06T08:10:19;6.75;;;5.30;;
45065;SDS011;30830;53.704;10.004;2023-05-06T08:12:46;5.78;;;5.22;;
45065;SDS011;30830;53.704;10.004;2023-05-06T08:15:11;6.78;;;5.32;;
45065;SDS011;30830;53.704;10.004;2023-05-06T08:17:37;6.88;;;5.25;;
45065;SDS011;30830;53.704;10.004;2023-05-06T08:20:03;9.02;;;6.10;;
45065;SDS011;30830;53.704;10.004;2023-05-06T08:22:28;9.63;;;5.88;;
45065;SDS011;30830;53.704;10.004;2023-05-06T08:24:54;7.22;;;5.07;;
45065;SDS011;30830;53.704;10.004;2023-05-06T08:27:21;9.25;;;5.38;;
45065;SDS011;30830;53.704;10.004;2023-05-06T08:29:47;10.10;;;5.78;;
45065;SDS011;30830;53.704;10.004;2023-05-06T08:32:12;7.28;;;5.57;;
45065;SDS011;30830;53.704;10.004;2023-05-06T08:34:38;5.75;;;4.78;;
45065;SDS011;30830;53.704;10.004;2023-05-06T08:37:03;6.65;;;5.28;;
45065;SDS011;30830;53.704;10.004;2023-05-06T08:39:29;7.60;;;5.65;;
45065;SDS011;30830;53.704;10.004;2023-05-06T08:41:55;9.70;;;5.22;;
45065;SDS011;30830;53.704;10.004;2023-05-06T08:44:23;7.40;;;5.72;;
45065;SDS011;30830;53.704;10.004;2023-05-06T08:46:49;6.63;;;5.55;;
45065;SDS011;30830;53.704;10.004;2023-05-06T08:49:14;8.32;;;5.15;;
45065;SDS011;30830;53.704;10.004;2023-05-06T08:51:41;8.30;;;5.80;;
45065;SDS011;30830;53.704;10.004;2023-05-06T08:54:08;7.47;;;5.45;;
45065;SDS011;30830;53.704;10.004;2023-05-06T08:56:35;5.65;;;4.95;;
45065;SDS011;30830;53.704;10.004;2023-05-06T08:59:02;6.32;;;5.05;;
45065;SDS011;30830;53.704;10.004;2023-05-06T09:01:30;7.28;;;5.15;;
45065;SDS011;30830;53.704;10.004;2023-05-06T09:03:56;6.72;;;5.68;;
45065;SDS011;30830;53.704;10.004;2023-05-06T09:06:22;7.53;;;5.30;;
45065;SDS011;30830;53.704;10.004;2023-05-06T09:08:49;7.10;;;5.57;;
45065;SDS011;30830;53.704;10.004;2023-05-06T09:11:24;6.63;;;5.40;;
45065;SDS011;30830;53.704;10.004;2023-05-06T09:14:11;8.55;;;4.95;;
45065;SDS011;30830;53.704;10.004;2023-05-06T09:16:38;5.78;;;5.18;;
45065;SDS011;30830;53.704;10.004;2023-05-06T09:19:07;7.15;;;5.55;;
45065;SDS011;30830;53.704;10.004;2023-05-06T09:21:36;7.32;;;4.97;;
45065;SDS011;30830;53.704;10.004;2023-05-06T09:24:04;5.53;;;4.55;;
45065;SDS011;30830;53.704;10.004;2023-05-06T09:26:32;6.38;;;4.80;;
45065;SDS011;30830;53.704;10.004;2023-05-06T09:28:59;5.28;;;4.60;;
45065;SDS011;30830;53.704;10.004;2023-05-06T09:31:25;4.40;;;4.00;;
45065;SDS011;30830;53.704;10.004;2023-05-06T09:33:52;5.60;;;4.15;;
45065;SDS011;30830;53.704;10.004;2023-05-06T09:36:18;5.32;;;4.57;;
45065;SDS011;30830;53.704;10.004;2023-05-06T09:38:44;5.97;;;3.75;;
45065;SDS011;30830;53.704;10.004;2023-05-06T09:41:11;7.47;;;4.50;;
45065;SDS011;30830;53.704;10.004;2023-05-06T09:43:37;4.95;;;4.45;;
45065;SDS011;30830;53.704;10.004;2023-05-06T09:46:06;5.80;;;4.60;;
45065;SDS011;30830;53.704;10.004;2023-05-06T09:48:32;5.63;;;4.60;;
45065;SDS011;30830;53.704;10.004;2023-05-06T09:50:59;7.30;;;5.35;;
45065;SDS011;30830;53.704;10.004;2023-05-06T09:53:25;6.63;;;4.30;;
45065;SDS011;30830;53.704;10.004;2023-05-06T09:55:52;6.68;;;5.18;;
45065;SDS011;30830;53.704;10.004;2023-05-06T09:58:20;6.82;;;5.22;;
45065;SDS011;30830;53.704;10.004;2023-05-06T10:00:46;6.07;;;5.18;;
45065;SDS011;30830;53.704;10.004;2023-05-06T10:03:13;6.88;;;4.78;;
45065;SDS011;30830;53.704;10.004;2023-05-06T10:05:40;8.77;;;5.70;;
45065;SDS011;30830;53.704;10.004;2023-05-06T10:08:07;6.22;;;5.13;;
45065;SDS011;30830;53.704;10.004;2023-05-06T10:10:34;8.73;;;6.20;;
45065;SDS011;30830;53.704;10.004;2023-05-06T10:13:06;7.68;;;5.90;;
45065;SDS011;30830;53.704;10.004;2023-05-06T10:15:32;5.93;;;5.32;;
45065;SDS011;30830;53.704;10.004;2023-05-06T10:17:58;8.07;;;4.93;;
45065;SDS011;30830;53.704;10.004;2023-05-06T10:20:25;5.43;;;4.72;;
45065;SDS011;30830;53.704;10.004;2023-05-06T10:25:39;8.75;;;5.35;;
45065;SDS011;30830;53.704;10.004;2023-05-06T10:28:09;6.80;;;5.00;;
45065;SDS011;30830;53.704;10.004;2023-05-06T10:30:37;7.28;;;5.05;;
45065;SDS011;30830;53.704;10.004;2023-05-06T10:33:05;7.68;;;5.07;;
45065;SDS011;30830;53.704;10.004;2023-05-06T10:38:27;7.70;;;4.90;;
45065;SDS011;30830;53.704;10.004;2023-05-06T10:40:56;5.65;;;4.93;;
45065;SDS011;30830;53.704;10.004;2023-05-06T10:48:33;6.78;;;5.38;;
45065;SDS011;30830;53.704;10.004;2023-05-06T10:53:54;7.43;;;5.25;;
45065;SDS011;30830;53.704;10.004;2023-05-06T10:56:30;6.85;;;5.70;;
45065;SDS011;30830;53.704;10.004;2023-05-06T10:59:20;7.72;;;4.93;;
45065;SDS011;30830;53.704;10.004;2023-05-06T11:01:54;5.75;;;5.07;;
45065;SDS011;30830;53.704;10.004;2023-05-06T11:04:22;8.07;;;5.37;;
45065;SDS011;30830;53.704;10.004;2023-05-06T11:06:48;6.00;;;5.40;;
45065;SDS011;30830;53.704;10.004;2023-05-06T11:09:20;6.68;;;5.28;;
45065;SDS011;30830;53.704;10.004;2023-05-06T11:14:26;7.07;;;5.80;;
45065;SDS011;30830;53.704;10.004;2023-05-06T11:16:56;7.75;;;5.90;;
45065;SDS011;30830;53.704;10.004;2023-05-06T11:21:51;8.82;;;5.63;;
45065;SDS011;30830;53.704;10.004;2023-05-06T11:24:40;9.68;;;6.05;;
45065;SDS011;30830;53.704;10.004;2023-05-06T11:27:07;8.47;;;6.23;;
45065;SDS011;30830;53.704;10.004;2023-05-06T11:29:33;8.45;;;6.03;;
45065;SDS011;30830;53.704;10.004;2023-05-06T11:31:59;9.05;;;6.43;;
45065;SDS011;30830;53.704;10.004;2023-05-06T11:34:26;10.25;;;6.45;;
45065;SDS011;30830;53.704;10.004;2023-05-06T11:37:02;6.82;;;5.57;;
45065;SDS011;30830;53.704;10.004;2023-05-06T11:39:30;8.77;;;6.57;;
45065;SDS011;30830;53.704;10.004;2023-05-06T11:41:58;10.65;;;6.93;;
45065;SDS011;30830;53.704;10.004;2023-05-06T11:44:28;10.45;;;5.95;;
45065;SDS011;30830;53.704;10.004;2023-05-06T11:46:59;9.93;;;6.60;;
45065;SDS011;30830;53.704;10.004;2023-05-06T11:49:33;9.05;;;6.65;;
45065;SDS011;30830;53.704;10.004;2023-05-06T11:52:04;8.07;;;6.43;;
45065;SDS011;30830;53.704;10.004;2023-05-06T11:54:35;11.07;;;7.65;;
45065;SDS011;30830;53.704;10.004;2023-05-06T11:57:02;9.40;;;7.35;;
45065;SDS011;30830;53.704;10.004;2023-05-06T11:59:33;10.43;;;6.85;;
45065;SDS011;30830;53.704;10.004;2023-05-06T12:02:01;9.80;;;6.90;;
45065;SDS011;30830;53.704;10.004;2023-05-06T12:04:38;7.43;;;6.22;;
45065;SDS011;30830;53.704;10.004;2023-05-06T12:07:06;9.98;;;7.03;;
45065;SDS011;30830;53.704;10.004;2023-05-06T12:09:35;11.82;;;7.57;;
45065;SDS011;30830;53.704;10.004;2023-05-06T12:12:06;8.52;;;6.32;;
45065;SDS011;30830;53.704;10.004;2023-05-06T12:14:34;10.90;;;8.18;;
45065;SDS011;30830;53.704;10.004;2023-05-06T12:17:01;10.98;;;7.22;;
45065;SDS011;30830;53.704;10.004;2023-05-06T12:19:27;9.05;;;6.78;;
45065;SDS011;30830;53.704;10.004;2023-05-06T12:21:53;11.10;;;7.63;;
45065;SDS011;30830;53.704;10.004;2023-05-06T12:24:28;10.23;;;6.90;;
45065;SDS011;30830;53.704;10.004;2023-05-06T12:26:54;8.38;;;6.78;;
45065;SDS011;30830;53.704;10.004;2023-05-06T12:29:20;9.40;;;6.47;;
45065;SDS011;30830;53.704;10.004;2023-05-06T12:31:46;10.18;;;7.20;;
45065;SDS011;30830;53.704;10.004;2023-05-06T12:34:12;7.85;;;6.30;;
45065;SDS011;30830;53.704;10.004;2023-05-06T12:36:40;9.60;;;6.88;;
45065;SDS011;30830;53.704;10.004;2023-05-06T12:39:08;8.85;;;6.85;;
45065;SDS011;30830;53.704;10.004;2023-05-06T12:47:01;8.43;;;6.68;;
45065;SDS011;30830;53.704;10.004;2023-05-06T12:52:12;7.85;;;5.72;;
45065;SDS011;30830;53.704;10.004;2023-05-06T12:54:37;10.15;;;6.82;;
45065;SDS011;30830;53.704;10.004;2023-05-06T12:57:03;9.48;;;6.50;;
45065;SDS011;30830;53.704;10.004;2023-05-06T12:59:29;8.00;;;6.10;;
45065;SDS011;30830;53.704;10.004;2023-05-06T13:01:56;8.38;;;6.18;;
45065;SDS011;30830;53.704;10.004;2023-05-06T13:04:22;9.80;;;6.80;;
45065;SDS011;30830;53.704;10.004;2023-05-06T13:06:48;7.70;;;5.65;;
45065;SDS011;30830;53.704;10.004;2023-05-06T13:09:15;8.40;;;6.30;;
45065;SDS011;30830;53.704;10.004;2023-05-06T13:11:41;9.38;;;6.53;;
45065;SDS011;30830;53.704;10.004;2023-05-06T13:14:07;8.90;;;6.45;;
45065;SDS011;30830;53.704;10.004;2023-05-06T13:16:33;8.73;;;6.82;;
45065;SDS011;30830;53.704;10.004;2023-05-06T13:18:59;11.07;;;6.78;;
45065;SDS011;30830;53.704;10.004;2023-05-06T13:21:25;8.65;;;5.53;;
45065;SDS011;30830;53.704;10.004;2023-05-06T13:23:51;9.43;;;7.32;;
45065;SDS011;30830;53.704;10.004;2023-05-06T13:26:17;9.68;;;7.05;;
45065;SDS011;30830;53.704;10.004;2023-05-06T13:28:43;10.20;;;7.38;;
45065;SDS011;30830;53.704;10.004;2023-05-06T13:31:08;10.23;;;7.45;;
45065;SDS011;30830;53.704;10.004;2023-05-06T13:33:34;9.07;;;6.97;;
45065;SDS011;30830;53.704;10.004;2023-05-06T13:36:00;10.88;;;7.72;;
45065;SDS011;30830;53.704;10.004;2023-05-06T13:38:25;9.30;;;7.18;;
45065;SDS011;30830;53.704;10.004;2023-05-06T13:40:52;9.73;;;6.72;;
45065;SDS011;30830;53.704;10.004;2023-05-06T13:43:19;11.00;;;6.88;;
45065;SDS011;30830;53.704;10.004;2023-05-06T13:45:46;9.95;;;7.00;;
45065;SDS011;30830;53.704;10.004;2023-05-06T13:48:12;7.85;;;7.05;;
45065;SDS011;30830;53.704;10.004;2023-05-06T13:50:41;9.15;;;7.20;;
45065;SDS011;30830;53.704;10.004;2023-05-06T13:53:08;7.50;;;6.78;;
45065;SDS011;30830;53.704;10.004;2023-05-06T13:55:34;9.68;;;7.70;;
45065;SDS011;30830;53.704;10.004;2023-05-06T13:58:00;8.63;;;7.78;;
45065;SDS011;30830;53.704;10.004;2023-05-06T14:00:25;7.18;;;6.43;;
45065;SDS011;30830;53.704;10.004;2023-05-06T14:02:51;7.72;;;6.90;;
45065;SDS011;30830;53.704;10.004;2023-05-06T14:05:17;8.68;;;6.70;;
45065;SDS011;30830;53.704;10.004;2023-05-06T14:07:42;8.77;;;6.88;;
45065;SDS011;30830;53.704;10.004;2023-05-06T14:10:08;9.15;;;6.63;;
45065;SDS011;30830;53.704;10.004;2023-05-06T14:12:34;9.93;;;6.18;;
45065;SDS011;30830;53.704;10.004;2023-05-06T14:14:59;8.20;;;6.18;;
45065;SDS011;30830;53.704;10.004;2023-05-06T14:17:25;8.23;;;6.50;;
45065;SDS011;30830;53.704;10.004;2023-05-06T14:19:51;7.28;;;6.57;;
45065;SDS011;30830;53.704;10.004;2023-05-06T14:22:16;11.52;;;6.72;;
45065;SDS011;30830;53.704;10.004;2023-05-06T14:24:42;9.32;;;6.85;;
45065;SDS011;30830;53.704;10.004;2023-05-06T14:27:07;8.90;;;6.85;;
45065;SDS011;30830;53.704;10.004;2023-05-06T14:29:33;7.47;;;6.63;;
45065;SDS011;30830;53.704;10.004;2023-05-06T14:31:59;6.45;;;5.78;;
45065;SDS011;30830;53.704;10.004;2023-05-06T14:34:24;7.18;;;6.30;;
45065;SDS011;30830;53.704;10.004;2023-05-06T14:36:51;8.18;;;6.53;;
45065;SDS011;30830;53.704;10.004;2023-05-06T14:39:16;7.93;;;6.47;;
45065;SDS011;30830;53.704;10.004;2023-05-06T14:41:42;9.20;;;6.65;;
45065;SDS011;30830;53.704;10.004;2023-05-06T14:44:08;10.07;;;7.40;;
45065;SDS011;30830;53.704;10.004;2023-05-06T14:46:33;7.60;;;5.63;;
45065;SDS011;30830;53.704;10.004;2023-05-06T14:48:59;7.10;;;6.40;;
45065;SDS011;30830;53.704;10.004;2023-05-06T14:51:24;9.95;;;7.38;;
45065;SDS011;30830;53.704;10.004;2023-05-06T14:53:50;10.15;;;7.40;;
45065;SDS011;30830;53.704;10.004;2023-05-06T14:56:15;8.38;;;6.53;;
45065;SDS011;30830;53.704;10.004;2023-05-06T14:58:41;9.15;;;7.28;;
45065;SDS011;30830;53.704;10.004;2023-05-06T15:01:07;9.68;;;6.55;;
45065;SDS011;30830;53.704;10.004;2023-05-06T15:03:32;11.32;;;7.32;;
45065;SDS011;30830;53.704;10.004;2023-05-06T15:05:58;12.40;;;9.02;;